Silver Point, TN (38582)

1:39 PM CDT on August 27, 2016 (GMT -0500)
Farming area, 60 miles east of Nashville.TN | | Change Station

Elev 564 ft 36.13 °N, 85.79 °W | Updated 27 seconds ago

Partly Cloudy
Partly Cloudy
88.7 °F
Feels Like 101 °F
N
1.1
Wind Variable Wind from WSW
Gusts 2.5 mph

Today
High -- | Low -- °F
--% Chance of Precip.
Yesterday
High -- | Low -- °F
Precip. -- in
Pressure 30.10 in
Visibility 10.0 miles
Clouds Few 8000 ft
Heat Index 101 °F
Dew Point 77 °F
Humidity 68%
Rainfall 0.00 in
Snow Depth Not available.
6:11 AM 7:16 PM
Waning Crescent, 22% visible
METAR KSRB 271835Z AUTO VRB03KT 10SM FEW080 35/23 A3010 RMK
Pressure 30.10 in
Visibility 10.0 miles
Clouds Few 8000 ft
Heat Index 101 °F
Dew Point 77 °F
Humidity 68%
Rainfall 0.00 in
Snow Depth Not available.
6:11 AM 7:16 PM
Waning Crescent, 22% visible
METAR KSRB 271835Z AUTO VRB03KT 10SM FEW080 35/23 A3010 RMK

10-Day Weather Forecast

Almanac

Astronomy

Aug. 27, 2016 Rise Set
Actual Time
Civil Twilight
Nautical Twilight
Astronomical Twilight
Moon
Length of Visible Light
Length of Day
Tomorrow will be .
, % of the Moon is Illuminated

Today's Extremes

State Highs State Lows

Community

WunderPhotos

Upload Photos

1,935,396 photos uploaded!

WunderBlog® & News

Nearby

Air Quality

  Air Quality AQ Index Pollutant
Not available.

Snow Depth

Station Depth Elevation

Earthquake Activity

City Distance Mag. Time & Date
Minimum magnitude displayed is 2.5.

Coastal Water Temperatures

Place Temperature

Stations

Nearby Weather Stations

Station Location Temp. Windchill Dew Point Humidity Wind Precip. Elev Updated Type
                   

Watches & Warnings

There are currently no watches in effect.